sensor_id;sensor_type;location;lat;lon;timestamp;noise_LAeq;noise_LA_min;noise_LA_max;noise_LA01;noise_LA95
64545;Laerm;50936;51.660;5.616;2023-08-21T00:00:50;39.83;35.66;43.14;;
64545;Laerm;50936;51.660;5.616;2023-08-21T00:03:16;39.63;35.04;43.19;;
64545;Laerm;50936;51.660;5.616;2023-08-21T00:05:44;39.61;32.93;42.35;;
64545;Laerm;50936;51.660;5.616;2023-08-21T00:08:11;39.66;35.36;42.47;;
64545;Laerm;50936;51.660;5.616;2023-08-21T00:10:38;39.53;35.04;42.35;;
64545;Laerm;50936;51.660;5.616;2023-08-21T00:13:05;39.66;35.04;55.90;;
64545;Laerm;50936;51.660;5.616;2023-08-21T00:15:33;39.49;35.59;42.22;;
64545;Laerm;50936;51.660;5.616;2023-08-21T00:18:00;39.64;34.69;42.47;;
64545;Laerm;50936;51.660;5.616;2023-08-21T00:20:27;39.95;34.69;44.35;;
64545;Laerm;50936;51.660;5.616;2023-08-21T00:22:54;39.32;33.44;42.93;;
64545;Laerm;50936;51.660;5.616;2023-08-21T00:25:22;37.59;32.35;40.23;;
64545;Laerm;50936;51.660;5.616;2023-08-21T00:27:49;37.67;31.68;41.46;;
64545;Laerm;50936;51.660;5.616;2023-08-21T00:30:16;37.85;32.93;42.03;;
64545;Laerm;50936;51.660;5.616;2023-08-21T00:32:43;37.96;32.35;44.35;;
64545;Laerm;50936;51.660;5.616;2023-08-21T00:35:10;38.70;30.89;46.95;;
64545;Laerm;50936;51.660;5.616;2023-08-21T00:37:37;37.95;30.89;43.58;;
64545;Laerm;50936;51.660;5.616;2023-08-21T00:40:05;37.32;32.35;40.13;;
64545;Laerm;50936;51.660;5.616;2023-08-21T00:42:32;37.44;32.93;47.79;;
64545;Laerm;50936;51.660;5.616;2023-08-21T00:44:59;37.36;32.35;40.23;;
64545;Laerm;50936;51.660;5.616;2023-08-21T00:47:27;37.42;32.93;47.79;;
64545;Laerm;50936;51.660;5.616;2023-08-21T00:49:54;37.57;33.44;41.30;;
64545;Laerm;50936;51.660;5.616;2023-08-21T00:52:21;37.85;32.93;43.86;;
64545;Laerm;50936;51.660;5.616;2023-08-21T00:54:50;37.55;32.93;42.53;;
64545;Laerm;50936;51.660;5.616;2023-08-21T00:57:18;37.65;31.68;53.40;;
64545;Laerm;50936;51.660;5.616;2023-08-21T00:59:47;37.68;31.68;45.20;;
64545;Laerm;50936;51.660;5.616;2023-08-21T01:02:14;37.54;32.35;40.27;;
64545;Laerm;50936;51.660;5.616;2023-08-21T01:04:42;37.42;31.68;42.59;;
64545;Laerm;50936;51.660;5.616;2023-08-21T01:07:09;37.70;31.68;44.23;;
64545;Laerm;50936;51.660;5.616;2023-08-21T01:09:49;37.53;31.68;41.38;;
64545;Laerm;50936;51.660;5.616;2023-08-21T01:12:34;37.76;30.89;43.04;;
64545;Laerm;50936;51.660;5.616;2023-08-21T01:15:06;39.40;33.44;44.51;;
64545;Laerm;50936;51.660;5.616;2023-08-21T01:17:36;39.48;35.04;44.19;;
64545;Laerm;50936;51.660;5.616;2023-08-21T01:20:07;39.43;35.31;42.22;;
64545;Laerm;50936;51.660;5.616;2023-08-21T01:22:39;39.41;35.04;42.41;;
64545;Laerm;50936;51.660;5.616;2023-08-21T01:25:08;39.50;34.69;47.72;;
64545;Laerm;50936;51.660;5.616;2023-08-21T01:27:45;39.50;35.36;42.29;;
64545;Laerm;50936;51.660;5.616;2023-08-21T01:30:14;39.47;34.31;42.09;;
64545;Laerm;50936;51.660;5.616;2023-08-21T01:35:27;37.78;32.93;42.53;;
64545;Laerm;50936;51.660;5.616;2023-08-21T01:37:57;37.76;29.92;42.35;;
64545;Laerm;50936;51.660;5.616;2023-08-21T01:40:26;37.44;32.35;40.13;;
64545;Laerm;50936;51.660;5.616;2023-08-21T01:42:53;37.54;32.35;40.62;;
64545;Laerm;50936;51.660;5.616;2023-08-21T01:45:22;37.62;30.89;41.88;;
64545;Laerm;50936;51.660;5.616;2023-08-21T01:47:50;37.62;31.68;42.71;;
64545;Laerm;50936;51.660;5.616;2023-08-21T01:50:18;37.55;32.58;41.06;;
64545;Laerm;50936;51.660;5.616;2023-08-21T01:52:45;37.57;32.35;41.75;;
64545;Laerm;50936;51.660;5.616;2023-08-21T01:55:13;37.52;30.89;40.98;;
64545;Laerm;50936;51.660;5.616;2023-08-21T01:57:40;37.71;32.93;44.03;;
64545;Laerm;50936;51.660;5.616;2023-08-21T02:00:09;37.80;32.35;41.06;;
64545;Laerm;50936;51.660;5.616;2023-08-21T02:02:39;38.07;32.93;43.54;;
64545;Laerm;50936;51.660;5.616;2023-08-21T02:05:08;38.17;32.93;42.82;;
64545;Laerm;50936;51.660;5.616;2023-08-21T02:07:35;37.53;30.54;44.27;;
64545;Laerm;50936;51.660;5.616;2023-08-21T02:10:02;37.56;32.35;40.98;;
64545;Laerm;50936;51.660;5.616;2023-08-21T02:12:29;37.68;32.93;43.54;;
64545;Laerm;50936;51.660;5.616;2023-08-21T02:14:56;37.60;30.89;41.53;;
64545;Laerm;50936;51.660;5.616;2023-08-21T02:17:26;38.38;33.44;42.98;;
64545;Laerm;50936;51.660;5.616;2023-08-21T02:19:53;39.37;34.69;44.03;;
64545;Laerm;50936;51.660;5.616;2023-08-21T02:22:20;39.31;34.31;43.58;;
64545;Laerm;50936;51.660;5.616;2023-08-21T02:24:47;39.38;34.31;42.35;;
64545;Laerm;50936;51.660;5.616;2023-08-21T02:27:14;39.61;35.31;43.39;;
64545;Laerm;50936;51.660;5.616;2023-08-21T02:29:41;39.85;35.66;43.04;;
64545;Laerm;50936;51.660;5.616;2023-08-21T02:32:08;39.58;34.69;42.24;;
64545;Laerm;50936;51.660;5.616;2023-08-21T02:34:34;39.67;35.36;45.60;;
64545;Laerm;50936;51.660;5.616;2023-08-21T02:37:01;39.76;35.66;42.76;;
64545;Laerm;50936;51.660;5.616;2023-08-21T02:39:29;40.02;35.66;46.02;;
64545;Laerm;50936;51.660;5.616;2023-08-21T02:41:56;39.96;35.94;43.49;;
64545;Laerm;50936;51.660;5.616;2023-08-21T02:44:23;39.88;35.36;43.09;;
64545;Laerm;50936;51.660;5.616;2023-08-21T02:46:50;40.24;35.36;44.19;;
64545;Laerm;50936;51.660;5.616;2023-08-21T02:49:17;39.76;35.04;42.47;;
64545;Laerm;50936;51.660;5.616;2023-08-21T02:51:45;40.15;35.66;43.77;;
64545;Laerm;50936;51.660;5.616;2023-08-21T02:54:11;39.77;35.94;42.76;;
64545;Laerm;50936;51.660;5.616;2023-08-21T02:56:38;39.99;36.20;44.31;;
64545;Laerm;50936;51.660;5.616;2023-08-21T02:59:05;39.78;35.04;43.04;;
64545;Laerm;50936;51.660;5.616;2023-08-21T03:01:32;39.18;33.44;42.71;;
64545;Laerm;50936;51.660;5.616;2023-08-21T03:04:02;37.99;32.35;42.65;;
64545;Laerm;50936;51.660;5.616;2023-08-21T03:06:28;37.63;32.93;43.68;;
64545;Laerm;50936;51.660;5.616;2023-08-21T03:08:55;38.87;33.90;44.07;;
64545;Laerm;50936;51.660;5.616;2023-08-21T03:11:22;38.14;32.93;57.48;;
64545;Laerm;50936;51.660;5.616;2023-08-21T03:13:49;38.03;32.35;43.29;;
64545;Laerm;50936;51.660;5.616;2023-08-21T03:16:16;38.78;33.44;43.81;;
64545;Laerm;50936;51.660;5.616;2023-08-21T03:18:58;38.12;31.68;44.47;;
64545;Laerm;50936;51.660;5.616;2023-08-21T03:21:28;37.79;31.68;43.24;;
64545;Laerm;50936;51.660;5.616;2023-08-21T03:23:58;39.10;32.35;43.77;;
64545;Laerm;50936;51.660;5.616;2023-08-21T03:26:31;38.83;32.93;43.24;;
64545;Laerm;50936;51.660;5.616;2023-08-21T03:28:58;38.36;33.44;42.41;;
64545;Laerm;50936;51.660;5.616;2023-08-21T03:31:26;38.16;32.35;43.19;;
64545;Laerm;50936;51.660;5.616;2023-08-21T03:33:53;38.44;32.93;42.93;;
64545;Laerm;50936;51.660;5.616;2023-08-21T03:36:22;38.87;33.44;43.99;;
64545;Laerm;50936;51.660;5.616;2023-08-21T03:39:00;38.48;34.31;42.93;;
64545;Laerm;50936;51.660;5.616;2023-08-21T03:41:29;39.32;34.31;44.62;;
64545;Laerm;50936;51.660;5.616;2023-08-21T03:43:56;39.56;34.69;45.04;;
64545;Laerm;50936;51.660;5.616;2023-08-21T03:46:24;38.85;33.44;43.77;;
64545;Laerm;50936;51.660;5.616;2023-08-21T03:48:54;38.75;32.35;42.82;;
64545;Laerm;50936;51.660;5.616;2023-08-21T03:51:21;39.94;34.69;44.31;;
64545;Laerm;50936;51.660;5.616;2023-08-21T03:53:49;39.97;35.04;43.86;;
64545;Laerm;50936;51.660;5.616;2023-08-21T03:56:16;39.75;35.36;43.58;;
64545;Laerm;50936;51.660;5.616;2023-08-21T03:58:43;39.54;35.66;47.86;;
64545;Laerm;50936;51.660;5.616;2023-08-21T04:01:10;39.89;35.36;43.49;;
64545;Laerm;50936;51.660;5.616;2023-08-21T04:03:37;39.78;35.94;43.34;;
64545;Laerm;50936;51.660;5.616;2023-08-21T04:06:04;40.21;35.94;43.44;;
64545;Laerm;50936;51.660;5.616;2023-08-21T04:08:33;41.64;35.36;55.58;;
64545;Laerm;50936;51.660;5.616;2023-08-21T04:11:00;39.69;35.04;44.07;;
64545;Laerm;50936;51.660;5.616;2023-08-21T04:13:28;40.48;35.36;43.99;;
64545;Laerm;50936;51.660;5.616;2023-08-21T04:15:55;40.26;35.04;44.73;;
64545;Laerm;50936;51.660;5.616;2023-08-21T04:18:24;39.99;36.20;43.77;;
64545;Laerm;50936;51.660;5.616;2023-08-21T04:21:07;40.07;36.20;45.20;;
64545;Laerm;50936;51.660;5.616;2023-08-21T04:23:35;39.89;35.04;43.54;;
64545;Laerm;50936;51.660;5.616;2023-08-21T04:26:03;40.01;35.66;43.49;;
64545;Laerm;50936;51.660;5.616;2023-08-21T04:28:32;40.56;35.66;44.54;;
64545;Laerm;50936;51.660;5.616;2023-08-21T04:31:00;40.23;35.94;44.11;;
64545;Laerm;50936;51.660;5.616;2023-08-21T04:33:28;40.26;35.04;46.52;;
64545;Laerm;50936;51.660;5.616;2023-08-21T04:35:56;40.59;34.69;44.95;;
64545;Laerm;50936;51.660;5.616;2023-08-21T04:38:24;39.35;34.69;43.49;;
64545;Laerm;50936;51.660;5.616;2023-08-21T04:40:51;40.25;35.66;44.51;;
64545;Laerm;50936;51.660;5.616;2023-08-21T04:43:18;39.72;33.90;43.77;;
64545;Laerm;50936;51.660;5.616;2023-08-21T04:45:51;39.92;35.04;44.35;;
64545;Laerm;50936;51.660;5.616;2023-08-21T04:48:23;40.99;36.45;44.54;;
64545;Laerm;50936;51.660;5.616;2023-08-21T04:50:50;40.68;35.94;44.43;;
64545;Laerm;50936;51.660;5.616;2023-08-21T04:53:17;40.43;36.20;44.87;;
64545;Laerm;50936;51.660;5.616;2023-08-21T04:55:44;40.74;35.66;44.15;;
64545;Laerm;50936;51.660;5.616;2023-08-21T04:58:14;41.26;36.45;55.60;;
64545;Laerm;50936;51.660;5.616;2023-08-21T05:00:42;42.03;33.44;56.84;;
64545;Laerm;50936;51.660;5.616;2023-08-21T05:03:10;43.52;37.88;61.17;;
64545;Laerm;50936;51.660;5.616;2023-08-21T05:05:38;43.77;36.91;63.66;;
64545;Laerm;50936;51.660;5.616;2023-08-21T05:08:06;43.03;37.12;59.50;;
64545;Laerm;50936;51.660;5.616;2023-08-21T05:10:33;43.14;37.88;63.27;;
64545;Laerm;50936;51.660;5.616;2023-08-21T05:13:04;42.59;38.05;55.31;;
64545;Laerm;50936;51.660;5.616;2023-08-21T05:15:31;43.50;36.91;62.83;;
64545;Laerm;50936;51.660;5.616;2023-08-21T05:17:58;41.63;37.12;45.80;;
64545;Laerm;50936;51.660;5.616;2023-08-21T05:20:25;41.65;36.91;45.91;;
64545;Laerm;50936;51.660;5.616;2023-08-21T05:22:52;41.56;36.91;45.75;;
64545;Laerm;50936;51.660;5.616;2023-08-21T05:25:19;42.02;37.52;48.52;;
64545;Laerm;50936;51.660;5.616;2023-08-21T05:27:46;42.12;36.91;56.57;;
64545;Laerm;50936;51.660;5.616;2023-08-21T05:30:13;41.33;36.91;51.86;;
64545;Laerm;50936;51.660;5.616;2023-08-21T05:32:41;41.49;37.12;49.49;;
64545;Laerm;50936;51.660;5.616;2023-08-21T05:35:09;41.54;37.52;45.01;;
64545;Laerm;50936;51.660;5.616;2023-08-21T05:37:36;41.41;37.52;45.77;;
64545;Laerm;50936;51.660;5.616;2023-08-21T05:40:05;41.59;36.69;46.57;;
64545;Laerm;50936;51.660;5.616;2023-08-21T05:42:32;41.70;36.91;59.85;;
64545;Laerm;50936;51.660;5.616;2023-08-21T05:45:00;42.26;36.20;59.73;;
64545;Laerm;50936;51.660;5.616;2023-08-21T05:47:30;43.33;38.52;62.23;;
64545;Laerm;50936;51.660;5.616;2023-08-21T05:49:57;42.27;36.20;65.57;;
64545;Laerm;50936;51.660;5.616;2023-08-21T05:52:24;43.70;37.32;68.16;;
64545;Laerm;50936;51.660;5.616;2023-08-21T05:54:51;46.25;38.05;64.03;;
64545;Laerm;50936;51.660;5.616;2023-08-21T05:57:18;51.42;36.45;68.89;;
64545;Laerm;50936;51.660;5.616;2023-08-21T05:59:46;51.37;37.70;79.99;;
64545;Laerm;50936;51.660;5.616;2023-08-21T06:02:14;48.05;37.52;67.17;;
64545;Laerm;50936;51.660;5.616;2023-08-21T06:04:42;50.26;37.17;67.00;;
64545;Laerm;50936;51.660;5.616;2023-08-21T06:07:10;44.14;37.88;64.70;;
64545;Laerm;50936;51.660;5.616;2023-08-21T06:09:37;44.45;38.05;66.88;;
64545;Laerm;50936;51.660;5.616;2023-08-21T06:12:07;48.38;38.95;71.21;;
64545;Laerm;50936;51.660;5.616;2023-08-21T06:14:36;52.53;41.06;70.90;;
64545;Laerm;50936;51.660;5.616;2023-08-21T06:17:04;60.05;39.92;89.73;;
64545;Laerm;50936;51.660;5.616;2023-08-21T06:19:32;51.14;38.95;66.68;;
64545;Laerm;50936;51.660;5.616;2023-08-21T06:21:59;52.68;39.21;67.48;;
64545;Laerm;50936;51.660;5.616;2023-08-21T06:24:26;51.57;39.34;66.46;;
64545;Laerm;50936;51.660;5.616;2023-08-21T06:26:59;51.65;39.21;66.45;;
64545;Laerm;50936;51.660;5.616;2023-08-21T06:29:26;51.30;39.21;62.95;;
64545;Laerm;50936;51.660;5.616;2023-08-21T06:31:54;52.85;39.58;71.37;;
64545;Laerm;50936;51.660;5.616;2023-08-21T06:34:22;57.19;39.92;74.69;;
64545;Laerm;50936;51.660;5.616;2023-08-21T06:36:49;52.75;38.52;70.68;;
64545;Laerm;50936;51.660;5.616;2023-08-21T06:39:16;54.03;38.37;73.00;;
64545;Laerm;50936;51.660;5.616;2023-08-21T06:41:43;51.19;38.95;70.03;;
64545;Laerm;50936;51.660;5.616;2023-08-21T06:44:14;45.87;39.58;57.36;;
64545;Laerm;50936;51.660;5.616;2023-08-21T06:46:41;46.21;38.81;65.82;;
64545;Laerm;50936;51.660;5.616;2023-08-21T06:49:09;53.85;37.32;84.10;;
64545;Laerm;50936;51.660;5.616;2023-08-21T06:51:36;46.48;38.52;61.59;;
64545;Laerm;50936;51.660;5.616;2023-08-21T06:54:03;48.64;38.81;72.94;;
64545;Laerm;50936;51.660;5.616;2023-08-21T06:56:30;45.52;35.94;70.30;;
64545;Laerm;50936;51.660;5.616;2023-08-21T06:58:57;42.30;37.70;53.85;;
64545;Laerm;50936;51.660;5.616;2023-08-21T07:01:24;42.08;37.32;54.65;;
64545;Laerm;50936;51.660;5.616;2023-08-21T07:03:51;42.04;37.52;47.34;;
64545;Laerm;50936;51.660;5.616;2023-08-21T07:06:18;41.93;37.52;45.94;;
64545;Laerm;50936;51.660;5.616;2023-08-21T07:08:45;41.46;37.12;50.59;;
64545;Laerm;50936;51.660;5.616;2023-08-21T07:11:12;41.47;37.52;45.60;;
64545;Laerm;50936;51.660;5.616;2023-08-21T07:13:42;41.61;36.77;50.53;;
64545;Laerm;50936;51.660;5.616;2023-08-21T07:16:09;41.32;35.94;50.69;;
64545;Laerm;50936;51.660;5.616;2023-08-21T07:18:36;44.01;37.12;67.95;;
64545;Laerm;50936;51.660;5.616;2023-08-21T07:21:03;44.87;37.70;70.86;;
64545;Laerm;50936;51.660;5.616;2023-08-21T07:23:44;53.78;38.05;67.89;;
64545;Laerm;50936;51.660;5.616;2023-08-21T07:26:11;50.77;37.12;65.63;;
64545;Laerm;50936;51.660;5.616;2023-08-21T07:28:38;49.98;38.05;66.71;;
64545;Laerm;50936;51.660;5.616;2023-08-21T07:31:05;48.74;38.21;64.75;;
64545;Laerm;50936;51.660;5.616;2023-08-21T07:33:35;56.50;37.12;77.25;;
64545;Laerm;50936;51.660;5.616;2023-08-21T07:36:04;51.01;37.88;66.47;;
64545;Laerm;50936;51.660;5.616;2023-08-21T07:38:32;52.62;39.34;70.62;;
64545;Laerm;50936;51.660;5.616;2023-08-21T07:41:11;53.76;38.37;67.48;;
64545;Laerm;50936;51.660;5.616;2023-08-21T07:43:41;56.15;37.32;71.45;;
64545;Laerm;50936;51.660;5.616;2023-08-21T07:46:12;55.57;37.52;71.45;;
64545;Laerm;50936;51.660;5.616;2023-08-21T07:48:43;46.77;36.45;64.43;;
64545;Laerm;50936;51.660;5.616;2023-08-21T07:51:11;42.56;34.69;62.20;;
64545;Laerm;50936;51.660;5.616;2023-08-21T07:53:38;41.60;37.12;56.09;;
64545;Laerm;50936;51.660;5.616;2023-08-21T07:56:05;41.47;37.32;44.27;;
64545;Laerm;50936;51.660;5.616;2023-08-21T07:58:32;40.94;37.12;46.38;;
64545;Laerm;50936;51.660;5.616;2023-08-21T08:00:59;40.39;36.45;57.48;;
64545;Laerm;50936;51.660;5.616;2023-08-21T08:03:28;40.58;36.69;44.90;;
64545;Laerm;50936;51.660;5.616;2023-08-21T08:05:55;40.51;36.20;55.93;;
64545;Laerm;50936;51.660;5.616;2023-08-21T08:08:22;39.84;35.36;44.15;;
64545;Laerm;50936;51.660;5.616;2023-08-21T08:10:49;39.77;35.94;56.17;;
64545;Laerm;50936;51.660;5.616;2023-08-21T08:13:17;39.52;34.31;44.07;;
64545;Laerm;50936;51.660;5.616;2023-08-21T08:15:44;39.87;35.94;44.23;;
64545;Laerm;50936;51.660;5.616;2023-08-21T08:18:12;39.74;33.90;44.15;;
64545;Laerm;50936;51.660;5.616;2023-08-21T08:20:40;39.85;35.36;43.09;;
64545;Laerm;50936;51.660;5.616;2023-08-21T08:23:07;40.32;36.45;47.10;;
64545;Laerm;50936;51.660;5.616;2023-08-21T08:25:34;39.84;35.36;45.04;;
64545;Laerm;50936;51.660;5.616;2023-08-21T08:28:02;40.13;35.94;54.95;;
64545;Laerm;50936;51.660;5.616;2023-08-21T08:30:29;39.81;35.36;43.14;;
64545;Laerm;50936;51.660;5.616;2023-08-21T08:32:56;39.93;35.66;44.97;;
64545;Laerm;50936;51.660;5.616;2023-08-21T08:35:23;39.98;35.04;44.54;;
64545;Laerm;50936;51.660;5.616;2023-08-21T08:37:50;39.45;35.86;43.81;;
64545;Laerm;50936;51.660;5.616;2023-08-21T08:40:17;40.20;36.45;43.24;;
64545;Laerm;50936;51.660;5.616;2023-08-21T08:42:44;39.63;35.04;43.72;;
64545;Laerm;50936;51.660;5.616;2023-08-21T08:45:13;39.86;33.90;44.11;;
64545;Laerm;50936;51.660;5.616;2023-08-21T08:47:45;39.61;35.04;43.04;;
64545;Laerm;50936;51.660;5.616;2023-08-21T08:50:14;40.42;35.94;45.04;;
64545;Laerm;50936;51.660;5.616;2023-08-21T08:52:43;40.53;33.90;45.27;;
64545;Laerm;50936;51.660;5.616;2023-08-21T08:55:10;39.80;36.20;43.86;;
64545;Laerm;50936;51.660;5.616;2023-08-21T08:57:38;39.92;35.94;43.19;;
64545;Laerm;50936;51.660;5.616;2023-08-21T09:00:05;39.99;35.04;43.44;;
64545;Laerm;50936;51.660;5.616;2023-08-21T09:02:33;40.71;36.45;45.33;;
64545;Laerm;50936;51.660;5.616;2023-08-21T09:05:00;43.19;36.91;49.81;;
64545;Laerm;50936;51.660;5.616;2023-08-21T09:07:28;41.13;36.69;54.57;;
64545;Laerm;50936;51.660;5.616;2023-08-21T09:09:55;40.11;36.45;55.88;;
64545;Laerm;50936;51.660;5.616;2023-08-21T09:12:22;39.98;36.56;44.54;;
64545;Laerm;50936;51.660;5.616;2023-08-21T09:14:49;40.96;36.20;52.00;;
64545;Laerm;50936;51.660;5.616;2023-08-21T09:17:16;40.22;36.91;45.42;;
64545;Laerm;50936;51.660;5.616;2023-08-21T09:19:44;40.93;36.45;46.55;;
64545;Laerm;50936;51.660;5.616;2023-08-21T09:22:16;40.62;37.12;45.27;;
64545;Laerm;50936;51.660;5.616;2023-08-21T09:25:06;40.31;36.69;43.94;;
64545;Laerm;50936;51.660;5.616;2023-08-21T09:27:35;40.88;36.69;45.45;;
64545;Laerm;50936;51.660;5.616;2023-08-21T09:30:09;40.32;36.91;45.80;;
64545;Laerm;50936;51.660;5.616;2023-08-21T09:32:57;40.72;36.69;44.62;;
64545;Laerm;50936;51.660;5.616;2023-08-21T09:35:26;40.50;37.12;43.46;;
64545;Laerm;50936;51.660;5.616;2023-08-21T09:37:53;40.13;36.20;44.58;;
64545;Laerm;50936;51.660;5.616;2023-08-21T09:40:21;39.81;35.94;43.68;;
64545;Laerm;50936;51.660;5.616;2023-08-21T09:42:58;41.00;35.94;46.45;;
64545;Laerm;50936;51.660;5.616;2023-08-21T09:45:28;40.24;36.20;47.83;;
64545;Laerm;50936;51.660;5.616;2023-08-21T09:47:56;40.15;35.66;44.76;;
64545;Laerm;50936;51.660;5.616;2023-08-21T09:50:28;40.01;35.94;43.04;;
64545;Laerm;50936;51.660;5.616;2023-08-21T09:52:57;39.87;35.66;48.54;;
64545;Laerm;50936;51.660;5.616;2023-08-21T09:55:26;39.93;35.66;43.24;;
64545;Laerm;50936;51.660;5.616;2023-08-21T09:57:59;39.75;35.94;42.82;;
64545;Laerm;50936;51.660;5.616;2023-08-21T10:00:36;40.23;34.69;43.86;;
64545;Laerm;50936;51.660;5.616;2023-08-21T10:03:08;49.50;35.94;70.76;;
64545;Laerm;50936;51.660;5.616;2023-08-21T10:05:39;52.24;38.37;76.97;;
64545;Laerm;50936;51.660;5.616;2023-08-21T10:08:08;49.95;38.52;72.94;;
64545;Laerm;50936;51.660;5.616;2023-08-21T10:10:38;56.31;38.95;83.29;;
64545;Laerm;50936;51.660;5.616;2023-08-21T10:13:08;49.19;39.81;74.68;;
64545;Laerm;50936;51.660;5.616;2023-08-21T10:15:37;71.14;38.37;102.82;;
64545;Laerm;50936;51.660;5.616;2023-08-21T10:18:21;53.05;37.52;79.44;;
64545;Laerm;50936;51.660;5.616;2023-08-21T10:20:52;52.22;40.03;74.37;;
64545;Laerm;50936;51.660;5.616;2023-08-21T10:23:31;49.96;39.08;71.29;;
64545;Laerm;50936;51.660;5.616;2023-08-21T10:26:00;53.47;39.70;79.76;;
64545;Laerm;50936;51.660;5.616;2023-08-21T10:34:06;50.20;38.05;66.44;;
64545;Laerm;50936;51.660;5.616;2023-08-21T10:39:25;65.10;40.53;85.02;;
64545;Laerm;50936;51.660;5.616;2023-08-21T10:42:12;52.46;39.21;77.63;;
64545;Laerm;50936;51.660;5.616;2023-08-21T10:49:47;49.17;39.21;76.94;;
64545;Laerm;50936;51.660;5.616;2023-08-21T10:52:23;52.66;39.81;80.07;;
64545;Laerm;50936;51.660;5.616;2023-08-21T10:54:58;53.08;39.34;77.22;;
64545;Laerm;50936;51.660;5.616;2023-08-21T10:57:28;56.90;39.46;77.64;;
64545;Laerm;50936;51.660;5.616;2023-08-21T11:00:07;55.14;39.08;80.85;;
64545;Laerm;50936;51.660;5.616;2023-08-21T11:02:41;59.39;38.81;88.22;;
64545;Laerm;50936;51.660;5.616;2023-08-21T11:05:10;58.77;38.05;89.59;;
64545;Laerm;50936;51.660;5.616;2023-08-21T11:07:46;57.94;39.46;78.79;;
64545;Laerm;50936;51.660;5.616;2023-08-21T11:10:16;49.29;39.58;72.20;;
64545;Laerm;50936;51.660;5.616;2023-08-21T11:12:56;53.63;38.87;82.18;;
64545;Laerm;50936;51.660;5.616;2023-08-21T11:15:29;49.48;39.58;71.15;;
64545;Laerm;50936;51.660;5.616;2023-08-21T11:18:00;47.27;38.95;69.95;;
64545;Laerm;50936;51.660;5.616;2023-08-21T11:20:33;45.28;39.70;68.29;;
64545;Laerm;50936;51.660;5.616;2023-08-21T11:23:04;44.56;38.52;63.79;;
64545;Laerm;50936;51.660;5.616;2023-08-21T11:25:34;45.18;39.70;65.69;;
64545;Laerm;50936;51.660;5.616;2023-08-21T11:28:05;44.07;39.08;49.80;;
64545;Laerm;50936;51.660;5.616;2023-08-21T11:30:32;44.41;39.21;60.65;;
64545;Laerm;50936;51.660;5.616;2023-08-21T11:33:12;45.75;38.95;70.06;;
64545;Laerm;50936;51.660;5.616;2023-08-21T11:35:39;44.53;37.52;64.37;;
64545;Laerm;50936;51.660;5.616;2023-08-21T11:38:16;44.75;38.05;66.15;;
64545;Laerm;50936;51.660;5.616;2023-08-21T11:40:58;43.72;38.81;64.14;;
64545;Laerm;50936;51.660;5.616;2023-08-21T11:43:40;43.71;39.81;58.71;;
64545;Laerm;50936;51.660;5.616;2023-08-21T11:46:10;43.80;38.95;51.04;;
64545;Laerm;50936;51.660;5.616;2023-08-21T11:48:39;45.53;38.52;72.54;;
64545;Laerm;50936;51.660;5.616;2023-08-21T11:51:07;52.40;40.62;64.09;;
64545;Laerm;50936;51.660;5.616;2023-08-21T11:53:38;55.44;40.23;66.86;;
64545;Laerm;50936;51.660;5.616;2023-08-21T11:56:17;53.07;39.08;67.41;;
64545;Laerm;50936;51.660;5.616;2023-08-21T11:58:46;53.99;39.08;65.33;;
64545;Laerm;50936;51.660;5.616;2023-08-21T12:01:21;53.76;40.13;66.65;;
64545;Laerm;50936;51.660;5.616;2023-08-21T12:03:48;53.81;39.58;66.87;;
64545;Laerm;50936;51.660;5.616;2023-08-21T12:06:24;52.81;40.23;72.44;;
64545;Laerm;50936;51.660;5.616;2023-08-21T12:08:52;43.93;38.95;63.50;;
64545;Laerm;50936;51.660;5.616;2023-08-21T12:11:20;44.18;38.67;63.17;;
64545;Laerm;50936;51.660;5.616;2023-08-21T12:13:47;44.39;39.21;59.21;;
64545;Laerm;50936;51.660;5.616;2023-08-21T12:16:14;44.72;37.70;57.99;;
64545;Laerm;50936;51.660;5.616;2023-08-21T12:18:41;44.74;38.67;62.86;;
64545;Laerm;50936;51.660;5.616;2023-08-21T12:21:08;44.39;39.46;49.93;;
64545;Laerm;50936;51.660;5.616;2023-08-21T12:23:35;44.51;39.70;51.98;;
64545;Laerm;50936;51.660;5.616;2023-08-21T12:26:02;44.77;39.89;65.49;;
64545;Laerm;50936;51.660;5.616;2023-08-21T12:28:29;45.19;38.81;69.35;;
64545;Laerm;50936;51.660;5.616;2023-08-21T12:30:57;44.50;37.32;60.29;;
64545;Laerm;50936;51.660;5.616;2023-08-21T12:33:24;44.44;38.37;52.67;;
64545;Laerm;50936;51.660;5.616;2023-08-21T12:35:51;44.08;38.05;54.92;;
64545;Laerm;50936;51.660;5.616;2023-08-21T12:38:18;54.97;39.70;78.63;;
64545;Laerm;50936;51.660;5.616;2023-08-21T12:40:45;55.14;39.58;75.67;;
64545;Laerm;50936;51.660;5.616;2023-08-21T12:43:12;52.75;38.95;67.54;;
64545;Laerm;50936;51.660;5.616;2023-08-21T12:45:39;53.01;38.95;72.13;;
64545;Laerm;50936;51.660;5.616;2023-08-21T12:48:06;43.84;39.08;49.91;;
64545;Laerm;50936;51.660;5.616;2023-08-21T12:50:33;43.41;37.88;48.64;;
64545;Laerm;50936;51.660;5.616;2023-08-21T12:53:00;43.54;37.70;53.24;;
64545;Laerm;50936;51.660;5.616;2023-08-21T12:55:28;44.04;37.70;61.39;;
64545;Laerm;50936;51.660;5.616;2023-08-21T12:57:56;43.86;38.67;52.56;;
64545;Laerm;50936;51.660;5.616;2023-08-21T13:00:23;44.16;37.53;54.17;;
64545;Laerm;50936;51.660;5.616;2023-08-21T13:02:50;44.95;38.05;61.63;;
64545;Laerm;50936;51.660;5.616;2023-08-21T13:05:18;54.13;37.12;78.07;;
64545;Laerm;50936;51.660;5.616;2023-08-21T13:07:45;48.10;38.67;74.89;;
64545;Laerm;50936;51.660;5.616;2023-08-21T13:10:13;44.18;39.34;50.53;;
64545;Laerm;50936;51.660;5.616;2023-08-21T13:12:40;43.76;39.34;62.71;;
64545;Laerm;50936;51.660;5.616;2023-08-21T13:15:08;44.20;39.08;53.41;;
64545;Laerm;50936;51.660;5.616;2023-08-21T13:17:35;43.25;39.08;56.15;;
64545;Laerm;50936;51.660;5.616;2023-08-21T13:20:03;43.44;38.95;58.85;;
64545;Laerm;50936;51.660;5.616;2023-08-21T13:22:51;55.42;39.21;80.31;;
64545;Laerm;50936;51.660;5.616;2023-08-21T13:25:23;44.99;38.95;62.07;;
64545;Laerm;50936;51.660;5.616;2023-08-21T13:27:54;43.94;39.21;56.69;;
64545;Laerm;50936;51.660;5.616;2023-08-21T13:30:21;45.99;38.21;70.08;;
64545;Laerm;50936;51.660;5.616;2023-08-21T13:32:49;47.81;34.69;69.19;;
64545;Laerm;50936;51.660;5.616;2023-08-21T13:35:16;54.04;35.04;77.66;;
64545;Laerm;50936;51.660;5.616;2023-08-21T13:37:44;40.32;35.86;49.63;;
64545;Laerm;50936;51.660;5.616;2023-08-21T13:40:11;40.76;37.12;62.55;;
64545;Laerm;50936;51.660;5.616;2023-08-21T13:42:44;40.66;36.45;46.40;;
64545;Laerm;50936;51.660;5.616;2023-08-21T13:45:15;40.41;35.36;43.29;;
64545;Laerm;50936;51.660;5.616;2023-08-21T13:47:44;41.07;37.32;45.36;;
64545;Laerm;50936;51.660;5.616;2023-08-21T13:50:17;40.48;37.32;43.77;;
64545;Laerm;50936;51.660;5.616;2023-08-21T13:52:47;40.77;36.69;44.69;;
64545;Laerm;50936;51.660;5.616;2023-08-21T13:55:15;40.77;36.45;44.90;;
64545;Laerm;50936;51.660;5.616;2023-08-21T13:57:43;40.39;36.69;43.99;;
64545;Laerm;50936;51.660;5.616;2023-08-21T14:00:11;39.90;35.66;43.86;;
64545;Laerm;50936;51.660;5.616;2023-08-21T14:02:41;40.18;33.44;43.39;;
64545;Laerm;50936;51.660;5.616;2023-08-21T14:05:10;40.54;36.10;46.20;;
64545;Laerm;50936;51.660;5.616;2023-08-21T14:07:38;40.63;36.20;44.76;;
64545;Laerm;50936;51.660;5.616;2023-08-21T14:10:07;40.26;35.94;44.42;;